sensor_id;sensor_type;location;lat;lon;timestamp;P1;durP1;ratioP1;P2;durP2;ratioP2
25449;SDS011;13371;52.080;5.624;2024-01-25T00:01:52;17.33;;;2.55;;
25449;SDS011;13371;52.080;5.624;2024-01-25T00:04:19;17.10;;;2.50;;
25449;SDS011;13371;52.080;5.624;2024-01-25T00:06:44;17.85;;;3.28;;
25449;SDS011;13371;52.080;5.624;2024-01-25T00:09:10;18.80;;;4.03;;
25449;SDS011;13371;52.080;5.624;2024-01-25T00:11:35;19.23;;;2.70;;
25449;SDS011;13371;52.080;5.624;2024-01-25T00:14:01;19.95;;;2.92;;
25449;SDS011;13371;52.080;5.624;2024-01-25T00:16:27;16.67;;;2.65;;
25449;SDS011;13371;52.080;5.624;2024-01-25T00:18:53;29.52;;;4.72;;
25449;SDS011;13371;52.080;5.624;2024-01-25T00:21:18;20.70;;;3.72;;
25449;SDS011;13371;52.080;5.624;2024-01-25T00:23:44;20.55;;;3.70;;
25449;SDS011;13371;52.080;5.624;2024-01-25T00:26:09;18.67;;;3.47;;
25449;SDS011;13371;52.080;5.624;2024-01-25T00:28:35;17.38;;;3.17;;
25449;SDS011;13371;52.080;5.624;2024-01-25T00:31:00;10.95;;;3.10;;
25449;SDS011;13371;52.080;5.624;2024-01-25T00:33:29;20.63;;;2.95;;
25449;SDS011;13371;52.080;5.624;2024-01-25T00:35:54;11.43;;;2.40;;
25449;SDS011;13371;52.080;5.624;2024-01-25T00:38:20;15.73;;;2.63;;
25449;SDS011;13371;52.080;5.624;2024-01-25T00:40:46;21.40;;;3.70;;
25449;SDS011;13371;52.080;5.624;2024-01-25T00:43:12;19.75;;;4.05;;
25449;SDS011;13371;52.080;5.624;2024-01-25T00:45:38;9.65;;;1.98;;
25449;SDS011;13371;52.080;5.624;2024-01-25T00:48:04;23.92;;;3.15;;
25449;SDS011;13371;52.080;5.624;2024-01-25T00:50:30;21.75;;;3.15;;
25449;SDS011;13371;52.080;5.624;2024-01-25T00:52:56;12.90;;;2.50;;
25449;SDS011;13371;52.080;5.624;2024-01-25T00:55:22;12.77;;;2.63;;
25449;SDS011;13371;52.080;5.624;2024-01-25T00:57:47;28.80;;;2.78;;
25449;SDS011;13371;52.080;5.624;2024-01-25T01:00:13;11.05;;;2.50;;
25449;SDS011;13371;52.080;5.624;2024-01-25T01:02:40;18.98;;;4.05;;
25449;SDS011;13371;52.080;5.624;2024-01-25T01:05:10;23.35;;;3.38;;
25449;SDS011;13371;52.080;5.624;2024-01-25T01:07:37;19.50;;;3.08;;
25449;SDS011;13371;52.080;5.624;2024-01-25T01:10:05;30.75;;;3.50;;
25449;SDS011;13371;52.080;5.624;2024-01-25T01:12:32;12.50;;;2.53;;
25449;SDS011;13371;52.080;5.624;2024-01-25T01:14:57;21.40;;;3.35;;
25449;SDS011;13371;52.080;5.624;2024-01-25T01:17:23;25.50;;;3.80;;
25449;SDS011;13371;52.080;5.624;2024-01-25T01:19:48;18.48;;;3.58;;
25449;SDS011;13371;52.080;5.624;2024-01-25T01:22:14;16.48;;;3.10;;
25449;SDS011;13371;52.080;5.624;2024-01-25T01:24:39;24.77;;;3.70;;
25449;SDS011;13371;52.080;5.624;2024-01-25T01:27:05;19.25;;;3.08;;
25449;SDS011;13371;52.080;5.624;2024-01-25T01:29:31;13.35;;;2.70;;
25449;SDS011;13371;52.080;5.624;2024-01-25T01:31:56;22.90;;;3.58;;
25449;SDS011;13371;52.080;5.624;2024-01-25T01:34:22;18.55;;;2.80;;
25449;SDS011;13371;52.080;5.624;2024-01-25T01:36:48;27.70;;;3.85;;
25449;SDS011;13371;52.080;5.624;2024-01-25T01:39:14;16.92;;;2.50;;
25449;SDS011;13371;52.080;5.624;2024-01-25T01:41:40;20.58;;;2.85;;
25449;SDS011;13371;52.080;5.624;2024-01-25T01:44:05;14.02;;;3.22;;
25449;SDS011;13371;52.080;5.624;2024-01-25T01:46:35;28.58;;;3.17;;
25449;SDS011;13371;52.080;5.624;2024-01-25T01:49:03;18.67;;;3.33;;
25449;SDS011;13371;52.080;5.624;2024-01-25T01:51:29;25.20;;;3.25;;
25449;SDS011;13371;52.080;5.624;2024-01-25T01:53:56;17.40;;;2.80;;
25449;SDS011;13371;52.080;5.624;2024-01-25T01:56:24;17.67;;;2.63;;
25449;SDS011;13371;52.080;5.624;2024-01-25T01:58:51;17.50;;;2.17;;
25449;SDS011;13371;52.080;5.624;2024-01-25T02:01:18;25.50;;;3.00;;
25449;SDS011;13371;52.080;5.624;2024-01-25T02:03:45;25.25;;;3.60;;
25449;SDS011;13371;52.080;5.624;2024-01-25T02:06:10;15.48;;;3.17;;
25449;SDS011;13371;52.080;5.624;2024-01-25T02:08:36;25.02;;;3.47;;
25449;SDS011;13371;52.080;5.624;2024-01-25T02:11:02;17.25;;;2.60;;
25449;SDS011;13371;52.080;5.624;2024-01-25T02:13:27;23.30;;;3.03;;
25449;SDS011;13371;52.080;5.624;2024-01-25T02:15:53;20.98;;;3.05;;
25449;SDS011;13371;52.080;5.624;2024-01-25T02:18:18;16.83;;;2.88;;
25449;SDS011;13371;52.080;5.624;2024-01-25T02:20:44;17.27;;;3.00;;
25449;SDS011;13371;52.080;5.624;2024-01-25T02:23:10;20.23;;;3.05;;
25449;SDS011;13371;52.080;5.624;2024-01-25T02:25:35;10.52;;;2.15;;
25449;SDS011;13371;52.080;5.624;2024-01-25T02:28:01;17.25;;;2.63;;
25449;SDS011;13371;52.080;5.624;2024-01-25T02:30:26;18.98;;;3.47;;
25449;SDS011;13371;52.080;5.624;2024-01-25T02:32:52;16.02;;;3.50;;
25449;SDS011;13371;52.080;5.624;2024-01-25T02:35:17;17.40;;;3.03;;
25449;SDS011;13371;52.080;5.624;2024-01-25T02:37:43;20.98;;;3.28;;
25449;SDS011;13371;52.080;5.624;2024-01-25T02:40:09;17.58;;;3.03;;
25449;SDS011;13371;52.080;5.624;2024-01-25T02:42:34;18.85;;;2.83;;
25449;SDS011;13371;52.080;5.624;2024-01-25T02:45:00;19.90;;;2.55;;
25449;SDS011;13371;52.080;5.624;2024-01-25T02:47:26;16.42;;;2.80;;
25449;SDS011;13371;52.080;5.624;2024-01-25T02:49:51;18.95;;;3.13;;
25449;SDS011;13371;52.080;5.624;2024-01-25T02:52:17;18.15;;;3.35;;
25449;SDS011;13371;52.080;5.624;2024-01-25T02:54:42;18.35;;;3.13;;
25449;SDS011;13371;52.080;5.624;2024-01-25T02:57:08;16.80;;;2.60;;
25449;SDS011;13371;52.080;5.624;2024-01-25T02:59:33;21.60;;;3.08;;
25449;SDS011;13371;52.080;5.624;2024-01-25T03:01:59;13.55;;;3.97;;
25449;SDS011;13371;52.080;5.624;2024-01-25T03:04:24;27.90;;;2.85;;
25449;SDS011;13371;52.080;5.624;2024-01-25T03:06:50;13.43;;;2.35;;
25449;SDS011;13371;52.080;5.624;2024-01-25T03:09:15;11.32;;;2.75;;
25449;SDS011;13371;52.080;5.624;2024-01-25T03:11:41;13.68;;;2.53;;
25449;SDS011;13371;52.080;5.624;2024-01-25T03:14:07;21.52;;;3.63;;
25449;SDS011;13371;52.080;5.624;2024-01-25T03:16:32;13.10;;;2.15;;
25449;SDS011;13371;52.080;5.624;2024-01-25T03:18:58;9.85;;;2.05;;
25449;SDS011;13371;52.080;5.624;2024-01-25T03:21:23;19.85;;;3.10;;
25449;SDS011;13371;52.080;5.624;2024-01-25T03:23:49;13.15;;;2.80;;
25449;SDS011;13371;52.080;5.624;2024-01-25T03:26:16;14.07;;;2.58;;
25449;SDS011;13371;52.080;5.624;2024-01-25T03:28:41;19.90;;;2.95;;
25449;SDS011;13371;52.080;5.624;2024-01-25T03:31:07;18.90;;;2.63;;
25449;SDS011;13371;52.080;5.624;2024-01-25T03:33:33;16.02;;;2.15;;
25449;SDS011;13371;52.080;5.624;2024-01-25T03:36:02;16.05;;;2.88;;
25449;SDS011;13371;52.080;5.624;2024-01-25T03:38:28;22.40;;;3.92;;
25449;SDS011;13371;52.080;5.624;2024-01-25T03:40:54;12.55;;;2.53;;
25449;SDS011;13371;52.080;5.624;2024-01-25T03:43:21;8.68;;;2.08;;
25449;SDS011;13371;52.080;5.624;2024-01-25T03:45:48;24.48;;;2.90;;
25449;SDS011;13371;52.080;5.624;2024-01-25T03:48:14;16.15;;;2.60;;
25449;SDS011;13371;52.080;5.624;2024-01-25T03:50:40;12.63;;;3.03;;
25449;SDS011;13371;52.080;5.624;2024-01-25T03:53:05;18.17;;;2.72;;
25449;SDS011;13371;52.080;5.624;2024-01-25T03:55:31;9.35;;;1.98;;
25449;SDS011;13371;52.080;5.624;2024-01-25T03:57:57;10.43;;;1.83;;
25449;SDS011;13371;52.080;5.624;2024-01-25T04:00:23;14.70;;;2.50;;
25449;SDS011;13371;52.080;5.624;2024-01-25T04:02:48;15.60;;;2.67;;
25449;SDS011;13371;52.080;5.624;2024-01-25T04:05:14;14.85;;;2.45;;
25449;SDS011;13371;52.080;5.624;2024-01-25T04:07:39;11.68;;;2.97;;
25449;SDS011;13371;52.080;5.624;2024-01-25T04:10:05;13.90;;;3.60;;
25449;SDS011;13371;52.080;5.624;2024-01-25T04:12:31;15.65;;;2.08;;
25449;SDS011;13371;52.080;5.624;2024-01-25T04:14:58;18.60;;;1.90;;
25449;SDS011;13371;52.080;5.624;2024-01-25T04:17:24;16.92;;;3.10;;
25449;SDS011;13371;52.080;5.624;2024-01-25T04:19:49;15.30;;;2.22;;
25449;SDS011;13371;52.080;5.624;2024-01-25T04:22:15;22.10;;;2.75;;
25449;SDS011;13371;52.080;5.624;2024-01-25T04:24:40;11.98;;;2.50;;
25449;SDS011;13371;52.080;5.624;2024-01-25T04:27:06;15.25;;;2.33;;
25449;SDS011;13371;52.080;5.624;2024-01-25T04:29:32;12.52;;;2.50;;
25449;SDS011;13371;52.080;5.624;2024-01-25T04:31:57;16.17;;;2.17;;
25449;SDS011;13371;52.080;5.624;2024-01-25T04:34:23;13.60;;;2.53;;
25449;SDS011;13371;52.080;5.624;2024-01-25T04:36:49;13.68;;;2.47;;
25449;SDS011;13371;52.080;5.624;2024-01-25T04:39:14;17.92;;;2.58;;
25449;SDS011;13371;52.080;5.624;2024-01-25T04:41:40;16.67;;;2.65;;
25449;SDS011;13371;52.080;5.624;2024-01-25T04:44:05;15.00;;;2.13;;
25449;SDS011;13371;52.080;5.624;2024-01-25T04:46:31;10.07;;;2.47;;
25449;SDS011;13371;52.080;5.624;2024-01-25T04:49:01;13.70;;;2.80;;
25449;SDS011;13371;52.080;5.624;2024-01-25T04:51:27;13.07;;;1.92;;
25449;SDS011;13371;52.080;5.624;2024-01-25T04:53:53;22.02;;;3.08;;
25449;SDS011;13371;52.080;5.624;2024-01-25T04:56:18;15.15;;;2.17;;
25449;SDS011;13371;52.080;5.624;2024-01-25T04:58:44;9.88;;;1.88;;
25449;SDS011;13371;52.080;5.624;2024-01-25T05:01:09;14.75;;;3.10;;
25449;SDS011;13371;52.080;5.624;2024-01-25T05:03:35;14.73;;;3.13;;
25449;SDS011;13371;52.080;5.624;2024-01-25T05:06:01;10.80;;;2.22;;
25449;SDS011;13371;52.080;5.624;2024-01-25T05:08:26;19.17;;;2.83;;
25449;SDS011;13371;52.080;5.624;2024-01-25T05:10:52;24.95;;;2.80;;
25449;SDS011;13371;52.080;5.624;2024-01-25T05:13:18;13.73;;;2.55;;
25449;SDS011;13371;52.080;5.624;2024-01-25T05:15:43;19.95;;;3.50;;
25449;SDS011;13371;52.080;5.624;2024-01-25T05:18:09;11.25;;;2.90;;
25449;SDS011;13371;52.080;5.624;2024-01-25T05:20:35;11.25;;;2.40;;
25449;SDS011;13371;52.080;5.624;2024-01-25T05:23:02;18.92;;;2.58;;
25449;SDS011;13371;52.080;5.624;2024-01-25T05:25:29;17.13;;;2.38;;
25449;SDS011;13371;52.080;5.624;2024-01-25T05:27:55;10.07;;;2.78;;
25449;SDS011;13371;52.080;5.624;2024-01-25T05:30:22;13.73;;;2.30;;
25449;SDS011;13371;52.080;5.624;2024-01-25T05:32:48;14.73;;;2.30;;
25449;SDS011;13371;52.080;5.624;2024-01-25T05:35:14;14.68;;;2.45;;
25449;SDS011;13371;52.080;5.624;2024-01-25T05:37:41;26.35;;;3.38;;
25449;SDS011;13371;52.080;5.624;2024-01-25T05:40:07;16.55;;;2.63;;
25449;SDS011;13371;52.080;5.624;2024-01-25T05:42:34;22.73;;;3.10;;
25449;SDS011;13371;52.080;5.624;2024-01-25T05:45:00;13.85;;;2.80;;
25449;SDS011;13371;52.080;5.624;2024-01-25T05:47:26;18.75;;;2.95;;
25449;SDS011;13371;52.080;5.624;2024-01-25T05:49:52;12.25;;;2.40;;
25449;SDS011;13371;52.080;5.624;2024-01-25T05:52:17;16.00;;;2.85;;
25449;SDS011;13371;52.080;5.624;2024-01-25T05:54:43;14.50;;;2.08;;
25449;SDS011;13371;52.080;5.624;2024-01-25T05:57:08;15.65;;;3.58;;
25449;SDS011;13371;52.080;5.624;2024-01-25T05:59:34;14.30;;;2.70;;
25449;SDS011;13371;52.080;5.624;2024-01-25T06:02:00;13.68;;;2.90;;
25449;SDS011;13371;52.080;5.624;2024-01-25T06:04:25;11.75;;;2.17;;
25449;SDS011;13371;52.080;5.624;2024-01-25T06:06:51;15.65;;;2.90;;
25449;SDS011;13371;52.080;5.624;2024-01-25T06:09:17;14.07;;;2.85;;
25449;SDS011;13371;52.080;5.624;2024-01-25T06:11:42;11.73;;;2.42;;
25449;SDS011;13371;52.080;5.624;2024-01-25T06:14:08;10.15;;;3.42;;
25449;SDS011;13371;52.080;5.624;2024-01-25T06:16:34;18.85;;;3.50;;
25449;SDS011;13371;52.080;5.624;2024-01-25T06:18:59;15.77;;;2.58;;
25449;SDS011;13371;52.080;5.624;2024-01-25T06:21:26;8.20;;;2.17;;
25449;SDS011;13371;52.080;5.624;2024-01-25T06:23:52;13.60;;;2.25;;
25449;SDS011;13371;52.080;5.624;2024-01-25T06:26:17;10.25;;;2.35;;
25449;SDS011;13371;52.080;5.624;2024-01-25T06:28:43;26.20;;;2.83;;
25449;SDS011;13371;52.080;5.624;2024-01-25T06:31:08;18.23;;;3.38;;
25449;SDS011;13371;52.080;5.624;2024-01-25T06:33:34;16.58;;;2.67;;
25449;SDS011;13371;52.080;5.624;2024-01-25T06:35:59;11.02;;;2.47;;
25449;SDS011;13371;52.080;5.624;2024-01-25T06:38:25;8.32;;;1.80;;
25449;SDS011;13371;52.080;5.624;2024-01-25T06:40:50;12.18;;;2.50;;
25449;SDS011;13371;52.080;5.624;2024-01-25T06:43:16;10.35;;;2.28;;
25449;SDS011;13371;52.080;5.624;2024-01-25T06:45:41;13.32;;;2.72;;
25449;SDS011;13371;52.080;5.624;2024-01-25T06:48:07;18.52;;;3.30;;
25449;SDS011;13371;52.080;5.624;2024-01-25T06:50:35;8.77;;;2.25;;
25449;SDS011;13371;52.080;5.624;2024-01-25T06:53:01;16.45;;;3.45;;
25449;SDS011;13371;52.080;5.624;2024-01-25T06:55:29;9.13;;;2.13;;
25449;SDS011;13371;52.080;5.624;2024-01-25T06:57:54;13.40;;;2.00;;
25449;SDS011;13371;52.080;5.624;2024-01-25T07:00:20;8.57;;;2.83;;
25449;SDS011;13371;52.080;5.624;2024-01-25T07:02:46;15.27;;;2.88;;
25449;SDS011;13371;52.080;5.624;2024-01-25T07:05:12;16.42;;;3.30;;
25449;SDS011;13371;52.080;5.624;2024-01-25T07:07:37;14.65;;;2.47;;
25449;SDS011;13371;52.080;5.624;2024-01-25T07:10:04;13.90;;;2.50;;
25449;SDS011;13371;52.080;5.624;2024-01-25T07:12:30;13.65;;;2.72;;
25449;SDS011;13371;52.080;5.624;2024-01-25T07:14:56;11.75;;;2.25;;
25449;SDS011;13371;52.080;5.624;2024-01-25T07:17:22;5.97;;;1.90;;
25449;SDS011;13371;52.080;5.624;2024-01-25T07:19:48;16.25;;;2.90;;
25449;SDS011;13371;52.080;5.624;2024-01-25T07:22:14;18.50;;;3.92;;
25449;SDS011;13371;52.080;5.624;2024-01-25T07:24:40;7.88;;;2.65;;
25449;SDS011;13371;52.080;5.624;2024-01-25T07:27:06;10.35;;;2.60;;
25449;SDS011;13371;52.080;5.624;2024-01-25T07:29:31;10.00;;;2.50;;
25449;SDS011;13371;52.080;5.624;2024-01-25T07:31:57;10.40;;;2.65;;
25449;SDS011;13371;52.080;5.624;2024-01-25T07:34:22;21.55;;;2.60;;
25449;SDS011;13371;52.080;5.624;2024-01-25T07:36:48;9.40;;;2.33;;
25449;SDS011;13371;52.080;5.624;2024-01-25T07:39:13;18.48;;;2.47;;
25449;SDS011;13371;52.080;5.624;2024-01-25T07:41:39;7.25;;;2.80;;
25449;SDS011;13371;52.080;5.624;2024-01-25T07:44:04;12.10;;;2.72;;
25449;SDS011;13371;52.080;5.624;2024-01-25T07:46:31;11.30;;;2.47;;
25449;SDS011;13371;52.080;5.624;2024-01-25T07:48:56;18.20;;;2.65;;
25449;SDS011;13371;52.080;5.624;2024-01-25T07:51:22;10.82;;;2.30;;
25449;SDS011;13371;52.080;5.624;2024-01-25T07:53:47;9.85;;;2.58;;
25449;SDS011;13371;52.080;5.624;2024-01-25T07:56:13;19.35;;;3.17;;
25449;SDS011;13371;52.080;5.624;2024-01-25T07:58:38;19.13;;;3.10;;
25449;SDS011;13371;52.080;5.624;2024-01-25T08:01:05;15.50;;;2.95;;
25449;SDS011;13371;52.080;5.624;2024-01-25T08:03:31;12.50;;;3.25;;
25449;SDS011;13371;52.080;5.624;2024-01-25T08:05:58;13.70;;;3.65;;
25449;SDS011;13371;52.080;5.624;2024-01-25T08:08:24;19.67;;;3.97;;
25449;SDS011;13371;52.080;5.624;2024-01-25T08:10:49;27.23;;;5.55;;
25449;SDS011;13371;52.080;5.624;2024-01-25T08:13:15;18.70;;;5.85;;
25449;SDS011;13371;52.080;5.624;2024-01-25T08:15:40;18.55;;;4.57;;
25449;SDS011;13371;52.080;5.624;2024-01-25T08:18:06;21.73;;;4.88;;
25449;SDS011;13371;52.080;5.624;2024-01-25T08:20:32;25.55;;;7.95;;
25449;SDS011;13371;52.080;5.624;2024-01-25T08:22:57;37.38;;;14.82;;
25449;SDS011;13371;52.080;5.624;2024-01-25T08:25:23;25.60;;;8.82;;
25449;SDS011;13371;52.080;5.624;2024-01-25T08:27:49;30.20;;;7.93;;
25449;SDS011;13371;52.080;5.624;2024-01-25T08:30:15;22.17;;;4.97;;
25449;SDS011;13371;52.080;5.624;2024-01-25T08:32:40;13.95;;;5.13;;
25449;SDS011;13371;52.080;5.624;2024-01-25T08:35:06;17.92;;;5.93;;
25449;SDS011;13371;52.080;5.624;2024-01-25T08:37:32;15.63;;;5.13;;
25449;SDS011;13371;52.080;5.624;2024-01-25T08:39:57;20.80;;;5.22;;
25449;SDS011;13371;52.080;5.624;2024-01-25T08:42:23;20.20;;;5.60;;
25449;SDS011;13371;52.080;5.624;2024-01-25T08:44:49;17.33;;;4.68;;
25449;SDS011;13371;52.080;5.624;2024-01-25T08:47:15;13.05;;;4.70;;
25449;SDS011;13371;52.080;5.624;2024-01-25T08:49:42;24.63;;;5.97;;
25449;SDS011;13371;52.080;5.624;2024-01-25T08:52:08;22.17;;;5.15;;
25449;SDS011;13371;52.080;5.624;2024-01-25T08:54:34;20.88;;;5.38;;
25449;SDS011;13371;52.080;5.624;2024-01-25T08:57:00;25.50;;;6.20;;
25449;SDS011;13371;52.080;5.624;2024-01-25T08:59:26;15.32;;;5.43;;
25449;SDS011;13371;52.080;5.624;2024-01-25T09:01:53;30.25;;;6.95;;
25449;SDS011;13371;52.080;5.624;2024-01-25T09:04:19;21.75;;;5.03;;
25449;SDS011;13371;52.080;5.624;2024-01-25T09:06:44;28.50;;;6.28;;
25449;SDS011;13371;52.080;5.624;2024-01-25T09:09:10;25.45;;;5.70;;
25449;SDS011;13371;52.080;5.624;2024-01-25T09:11:36;19.27;;;5.80;;
25449;SDS011;13371;52.080;5.624;2024-01-25T09:14:01;26.52;;;6.80;;
25449;SDS011;13371;52.080;5.624;2024-01-25T09:16:27;25.45;;;6.38;;
25449;SDS011;13371;52.080;5.624;2024-01-25T09:18:52;29.35;;;6.90;;
25449;SDS011;13371;52.080;5.624;2024-01-25T09:21:18;24.45;;;6.88;;
25449;SDS011;13371;52.080;5.624;2024-01-25T09:23:43;23.67;;;6.03;;
25449;SDS011;13371;52.080;5.624;2024-01-25T09:26:09;24.35;;;6.07;;
25449;SDS011;13371;52.080;5.624;2024-01-25T09:28:35;29.98;;;6.47;;
25449;SDS011;13371;52.080;5.624;2024-01-25T09:31:00;26.42;;;5.82;;
25449;SDS011;13371;52.080;5.624;2024-01-25T09:33:26;22.80;;;5.82;;
25449;SDS011;13371;52.080;5.624;2024-01-25T09:35:51;25.63;;;7.10;;
25449;SDS011;13371;52.080;5.624;2024-01-25T09:38:17;18.52;;;6.18;;
25449;SDS011;13371;52.080;5.624;2024-01-25T09:40:42;25.45;;;5.45;;
25449;SDS011;13371;52.080;5.624;2024-01-25T09:43:08;28.17;;;5.93;;
25449;SDS011;13371;52.080;5.624;2024-01-25T09:45:34;19.60;;;5.95;;
25449;SDS011;13371;52.080;5.624;2024-01-25T09:48:00;19.35;;;5.43;;
25449;SDS011;13371;52.080;5.624;2024-01-25T09:50:29;33.75;;;5.07;;
25449;SDS011;13371;52.080;5.624;2024-01-25T09:52:58;20.65;;;5.70;;
25449;SDS011;13371;52.080;5.624;2024-01-25T09:55:25;33.72;;;6.47;;
25449;SDS011;13371;52.080;5.624;2024-01-25T09:57:55;21.20;;;5.75;;
25449;SDS011;13371;52.080;5.624;2024-01-25T10:00:21;21.85;;;5.60;;
25449;SDS011;13371;52.080;5.624;2024-01-25T10:02:48;25.10;;;6.63;;
25449;SDS011;13371;52.080;5.624;2024-01-25T10:05:17;28.27;;;5.80;;
25449;SDS011;13371;52.080;5.624;2024-01-25T10:07:46;27.58;;;6.72;;
25449;SDS011;13371;52.080;5.624;2024-01-25T10:10:12;27.77;;;6.93;;
25449;SDS011;13371;52.080;5.624;2024-01-25T10:12:39;27.58;;;6.15;;
25449;SDS011;13371;52.080;5.624;2024-01-25T10:15:06;24.27;;;6.07;;
25449;SDS011;13371;52.080;5.624;2024-01-25T10:17:32;31.23;;;6.68;;
25449;SDS011;13371;52.080;5.624;2024-01-25T10:19:58;29.17;;;7.18;;
25449;SDS011;13371;52.080;5.624;2024-01-25T10:22:24;33.42;;;7.00;;
25449;SDS011;13371;52.080;5.624;2024-01-25T10:24:49;37.85;;;6.97;;
25449;SDS011;13371;52.080;5.624;2024-01-25T10:27:15;20.00;;;5.95;;
25449;SDS011;13371;52.080;5.624;2024-01-25T10:29:41;25.63;;;6.25;;
25449;SDS011;13371;52.080;5.624;2024-01-25T10:32:10;27.95;;;5.75;;
25449;SDS011;13371;52.080;5.624;2024-01-25T10:34:37;29.50;;;6.63;;
25449;SDS011;13371;52.080;5.624;2024-01-25T10:37:03;29.83;;;5.97;;
25449;SDS011;13371;52.080;5.624;2024-01-25T10:39:31;30.52;;;5.32;;
25449;SDS011;13371;52.080;5.624;2024-01-25T10:41:57;39.38;;;7.28;;
25449;SDS011;13371;52.080;5.624;2024-01-25T10:44:24;24.27;;;7.20;;
25449;SDS011;13371;52.080;5.624;2024-01-25T10:46:49;23.08;;;5.20;;
25449;SDS011;13371;52.080;5.624;2024-01-25T10:49:16;28.05;;;5.63;;
25449;SDS011;13371;52.080;5.624;2024-01-25T10:51:43;35.30;;;6.75;;
25449;SDS011;13371;52.080;5.624;2024-01-25T10:54:09;29.75;;;5.55;;
25449;SDS011;13371;52.080;5.624;2024-01-25T10:56:36;23.20;;;4.95;;
25449;SDS011;13371;52.080;5.624;2024-01-25T10:59:02;16.70;;;5.20;;
25449;SDS011;13371;52.080;5.624;2024-01-25T11:01:29;20.10;;;5.75;;
25449;SDS011;13371;52.080;5.624;2024-01-25T11:03:54;28.90;;;5.80;;
25449;SDS011;13371;52.080;5.624;2024-01-25T11:06:21;29.38;;;5.55;;
25449;SDS011;13371;52.080;5.624;2024-01-25T11:08:47;23.15;;;4.88;;
25449;SDS011;13371;52.080;5.624;2024-01-25T11:11:13;35.72;;;5.78;;
25449;SDS011;13371;52.080;5.624;2024-01-25T11:13:40;26.40;;;6.13;;
25449;SDS011;13371;52.080;5.624;2024-01-25T11:18:52;30.30;;;6.35;;
25449;SDS011;13371;52.080;5.624;2024-01-25T11:21:25;35.92;;;6.00;;
25449;SDS011;13371;52.080;5.624;2024-01-25T11:24:02;29.92;;;6.35;;
25449;SDS011;13371;52.080;5.624;2024-01-25T11:26:28;25.58;;;6.03;;
25449;SDS011;13371;52.080;5.624;2024-01-25T11:28:55;32.50;;;6.78;;
25449;SDS011;13371;52.080;5.624;2024-01-25T11:31:21;16.58;;;5.05;;
25449;SDS011;13371;52.080;5.624;2024-01-25T11:33:48;27.05;;;6.68;;
25449;SDS011;13371;52.080;5.624;2024-01-25T11:36:15;26.60;;;5.50;;
25449;SDS011;13371;52.080;5.624;2024-01-25T11:38:40;30.45;;;6.07;;
25449;SDS011;13371;52.080;5.624;2024-01-25T11:41:06;35.15;;;8.90;;
25449;SDS011;13371;52.080;5.624;2024-01-25T11:43:32;32.60;;;10.27;;
25449;SDS011;13371;52.080;5.624;2024-01-25T11:45:58;35.22;;;9.60;;
25449;SDS011;13371;52.080;5.624;2024-01-25T11:48:26;35.08;;;8.45;;
25449;SDS011;13371;52.080;5.624;2024-01-25T11:50:52;28.08;;;7.82;;
25449;SDS011;13371;52.080;5.624;2024-01-25T11:53:18;31.42;;;6.38;;
25449;SDS011;13371;52.080;5.624;2024-01-25T11:55:46;31.77;;;6.43;;
25449;SDS011;13371;52.080;5.624;2024-01-25T11:58:12;28.75;;;5.47;;
25449;SDS011;13371;52.080;5.624;2024-01-25T12:00:37;25.48;;;5.38;;
25449;SDS011;13371;52.080;5.624;2024-01-25T12:03:03;29.88;;;6.10;;
25449;SDS011;13371;52.080;5.624;2024-01-25T12:05:29;31.33;;;6.97;;
25449;SDS011;13371;52.080;5.624;2024-01-25T12:07:55;22.35;;;6.40;;
25449;SDS011;13371;52.080;5.624;2024-01-25T12:10:20;26.05;;;5.90;;
25449;SDS011;13371;52.080;5.624;2024-01-25T12:12:48;25.73;;;4.82;;
25449;SDS011;13371;52.080;5.624;2024-01-25T12:15:13;18.00;;;4.88;;
25449;SDS011;13371;52.080;5.624;2024-01-25T12:17:39;32.10;;;7.13;;
25449;SDS011;13371;52.080;5.624;2024-01-25T12:20:05;29.65;;;6.60;;
25449;SDS011;13371;52.080;5.624;2024-01-25T12:22:35;35.00;;;6.00;;
25449;SDS011;13371;52.080;5.624;2024-01-25T12:25:02;26.42;;;5.82;;
25449;SDS011;13371;52.080;5.624;2024-01-25T12:27:32;34.22;;;6.72;;
25449;SDS011;13371;52.080;5.624;2024-01-25T12:29:58;30.08;;;6.55;;
25449;SDS011;13371;52.080;5.624;2024-01-25T12:32:24;21.92;;;4.95;;
25449;SDS011;13371;52.080;5.624;2024-01-25T12:34:56;28.25;;;5.30;;
25449;SDS011;13371;52.080;5.624;2024-01-25T12:37:22;24.40;;;7.00;;
25449;SDS011;13371;52.080;5.624;2024-01-25T12:39:49;23.25;;;5.45;;
25449;SDS011;13371;52.080;5.624;2024-01-25T12:42:16;23.75;;;5.00;;
25449;SDS011;13371;52.080;5.624;2024-01-25T12:44:42;25.58;;;6.43;;
25449;SDS011;13371;52.080;5.624;2024-01-25T12:47:08;28.85;;;6.97;;
25449;SDS011;13371;52.080;5.624;2024-01-25T12:49:34;36.78;;;6.63;;
25449;SDS011;13371;52.080;5.624;2024-01-25T12:51:59;24.58;;;6.13;;
25449;SDS011;13371;52.080;5.624;2024-01-25T12:54:25;24.38;;;5.72;;
25449;SDS011;13371;52.080;5.624;2024-01-25T12:56:51;26.15;;;7.60;;
25449;SDS011;13371;52.080;5.624;2024-01-25T12:59:17;27.85;;;6.70;;
25449;SDS011;13371;52.080;5.624;2024-01-25T13:01:42;37.70;;;7.15;;
25449;SDS011;13371;52.080;5.624;2024-01-25T13:04:08;34.13;;;6.82;;
25449;SDS011;13371;52.080;5.624;2024-01-25T13:06:34;37.58;;;7.40;;
25449;SDS011;13371;52.080;5.624;2024-01-25T13:08:59;32.08;;;7.03;;
25449;SDS011;13371;52.080;5.624;2024-01-25T13:11:25;20.77;;;6.13;;
25449;SDS011;13371;52.080;5.624;2024-01-25T13:13:50;29.17;;;6.10;;
25449;SDS011;13371;52.080;5.624;2024-01-25T13:16:16;20.20;;;6.53;;
25449;SDS011;13371;52.080;5.624;2024-01-25T13:18:42;30.92;;;6.80;;
25449;SDS011;13371;52.080;5.624;2024-01-25T13:21:08;20.88;;;6.78;;
25449;SDS011;13371;52.080;5.624;2024-01-25T13:23:34;31.52;;;6.97;;
25449;SDS011;13371;52.080;5.624;2024-01-25T13:25:59;28.25;;;6.40;;
25449;SDS011;13371;52.080;5.624;2024-01-25T13:28:25;29.42;;;8.25;;
25449;SDS011;13371;52.080;5.624;2024-01-25T13:30:50;36.70;;;6.68;;
25449;SDS011;13371;52.080;5.624;2024-01-25T13:33:19;23.67;;;6.78;;
25449;SDS011;13371;52.080;5.624;2024-01-25T13:35:44;30.40;;;6.43;;
25449;SDS011;13371;52.080;5.624;2024-01-25T13:38:10;26.48;;;7.03;;
25449;SDS011;13371;52.080;5.624;2024-01-25T13:40:39;24.63;;;7.07;;
25449;SDS011;13371;52.080;5.624;2024-01-25T13:43:05;35.10;;;6.68;;
25449;SDS011;13371;52.080;5.624;2024-01-25T13:45:31;28.23;;;6.88;;
25449;SDS011;13371;52.080;5.624;2024-01-25T13:47:56;34.63;;;7.05;;
25449;SDS011;13371;52.080;5.624;2024-01-25T13:50:22;31.27;;;6.45;;
25449;SDS011;13371;52.080;5.624;2024-01-25T13:52:47;32.58;;;7.28;;
25449;SDS011;13371;52.080;5.624;2024-01-25T13:55:13;24.63;;;7.00;;
25449;SDS011;13371;52.080;5.624;2024-01-25T13:57:38;27.40;;;7.80;;
25449;SDS011;13371;52.080;5.624;2024-01-25T14:00:04;30.35;;;6.90;;
25449;SDS011;13371;52.080;5.624;2024-01-25T14:02:31;34.33;;;8.55;;
25449;SDS011;13371;52.080;5.624;2024-01-25T14:04:57;29.58;;;7.90;;
25449;SDS011;13371;52.080;5.624;2024-01-25T14:07:23;26.75;;;6.90;;
25449;SDS011;13371;52.080;5.624;2024-01-25T14:09:48;26.50;;;8.38;;
25449;SDS011;13371;52.080;5.624;2024-01-25T14:12:14;22.92;;;7.78;;
25449;SDS011;13371;52.080;5.624;2024-01-25T14:14:39;25.75;;;7.47;;
25449;SDS011;13371;52.080;5.624;2024-01-25T14:17:06;22.52;;;7.55;;
25449;SDS011;13371;52.080;5.624;2024-01-25T14:19:31;26.73;;;7.30;;
25449;SDS011;13371;52.080;5.624;2024-01-25T14:21:57;25.40;;;8.25;;
25449;SDS011;13371;52.080;5.624;2024-01-25T14:24:22;34.40;;;8.10;;
25449;SDS011;13371;52.080;5.624;2024-01-25T14:26:48;29.95;;;9.30;;
25449;SDS011;13371;52.080;5.624;2024-01-25T14:29:14;29.85;;;7.20;;
25449;SDS011;13371;52.080;5.624;2024-01-25T14:31:39;31.20;;;8.27;;